createdAt,value
2022-10-31T00:01:43.376Z,103.27
2022-10-31T00:11:48.021Z,104.70
2022-10-31T00:21:53.524Z,97.73
2022-10-31T00:31:58.220Z,95.67
2022-10-31T00:42:01.453Z,94.87
2022-10-31T00:52:06.272Z,98.37
2022-10-31T01:02:10.514Z,101.73
2022-10-31T01:12:15.935Z,100.07
2022-10-31T01:22:19.167Z,102.40
2022-10-31T01:32:23.817Z,96.00
2022-10-31T01:42:28.245Z,99.10
2022-10-31T01:52:37.158Z,91.90
2022-10-31T02:02:42.871Z,96.47
2022-10-31T02:12:48.223Z,95.63
2022-10-31T02:23:22.933Z,96.27
2022-10-31T02:33:32.968Z,96.10
2022-10-31T02:43:43.749Z,95.63
2022-10-31T02:53:48.399Z,94.53
2022-10-31T03:04:18.343Z,94.17
2022-10-31T03:14:27.936Z,94.70
2022-10-31T03:24:40.627Z,98.73
2022-10-31T03:34:47.824Z,98.83
2022-10-31T03:44:59.320Z,100.80
2022-10-31T03:55:11.907Z,102.13
2022-10-31T04:05:17.659Z,101.10
2022-10-31T04:15:23.908Z,100.67
2022-10-31T04:25:27.709Z,97.23
2022-10-31T04:35:33.153Z,96.93
2022-10-31T04:45:36.711Z,96.33
2022-10-31T04:55:41.582Z,97.87
2022-10-31T05:05:44.867Z,98.27
2022-10-31T05:15:52.012Z,99.17
2022-10-31T05:25:57.829Z,97.10
2022-10-31T05:36:02.685Z,96.07
2022-10-31T05:46:29.009Z,95.50
2022-10-31T05:57:00.060Z,93.13
2022-10-31T06:07:03.862Z,92.13
2022-10-31T06:17:08.944Z,95.97
2022-10-31T06:27:24.711Z,94.83
2022-10-31T06:37:29.513Z,96.90
2022-10-31T06:47:50.976Z,99.27
2022-10-31T06:58:06.169Z,103.37
2022-10-31T07:08:12.828Z,112.83
2022-10-31T07:18:17.805Z,102.87
2022-10-31T07:28:21.476Z,104.83
2022-10-31T07:38:29.633Z,109.55
2022-10-31T07:48:38.978Z,105.15
2022-10-31T07:59:02.292Z,118.80
2022-10-31T08:09:06.419Z,114.88
2022-10-31T08:19:12.623Z,116.22
2022-10-31T08:29:17.257Z,135.25
2022-10-31T08:39:22.782Z,115.32
2022-10-31T08:49:27.454Z,141.82
2022-10-31T08:59:32.284Z,121.03
2022-10-31T09:10:08.660Z,122.57
2022-10-31T09:20:16.005Z,122.72
2022-10-31T09:30:19.472Z,147.40
2022-10-31T09:40:27.288Z,132.25
2022-10-31T09:50:40.741Z,127.28
2022-10-31T10:01:05.592Z,123.78
2022-10-31T10:11:31.696Z,125.63
2022-10-31T10:21:54.887Z,125.30
2022-10-31T10:32:03.809Z,127.22
2022-10-31T10:42:43.008Z,126.38
2022-10-31T10:52:54.028Z,128.77
2022-10-31T11:02:58.948Z,131.15
2022-10-31T11:13:24.410Z,128.82
2022-10-31T11:23:31.010Z,135.45
2022-10-31T11:33:37.246Z,130.13
2022-10-31T11:43:51.606Z,143.00
2022-10-31T11:54:01.705Z,134.15
2022-10-31T12:04:11.373Z,133.02
2022-10-31T12:14:28.857Z,135.80
2022-10-31T12:24:50.591Z,130.98
2022-10-31T12:35:28.375Z,131.27
2022-10-31T12:45:49.521Z,132.32
2022-10-31T12:56:12.298Z,129.82
2022-10-31T13:06:22.296Z,136.18
2022-10-31T13:16:31.498Z,129.57
2022-10-31T13:26:43.126Z,127.47
2022-10-31T13:36:55.753Z,127.45
2022-10-31T13:47:00.901Z,128.77
2022-10-31T13:57:04.455Z,131.35
2022-10-31T14:07:12.380Z,139.90
2022-10-31T14:17:23.528Z,125.60
2022-10-31T14:27:47.544Z,127.70
2022-10-31T14:38:19.455Z,120.40
2022-10-31T14:48:54.170Z,120.97
2022-10-31T14:59:01.532Z,106.30
2022-10-31T15:09:06.244Z,102.65
2022-10-31T15:19:14.493Z,100.13
2022-10-31T15:29:23.454Z,97.78
2022-10-31T15:39:26.841Z,96.55
2022-10-31T15:49:38.870Z,93.15
2022-10-31T15:59:44.873Z,97.40
2022-10-31T16:09:56.305Z,97.00
2022-10-31T16:20:05.286Z,93.30
2022-10-31T16:30:45.430Z,97.30
2022-10-31T16:40:52.515Z,100.70
2022-10-31T16:50:57.189Z,104.13
2022-10-31T17:01:01.075Z,106.00
2022-10-31T17:11:06.252Z,104.37
2022-10-31T17:21:17.986Z,107.17
2022-10-31T17:31:25.895Z,91.73
2022-10-31T17:41:29.363Z,91.07
2022-10-31T17:51:34.190Z,96.43
2022-10-31T18:01:37.717Z,97.83
2022-10-31T18:11:42.763Z,98.23
2022-10-31T18:21:46.833Z,98.17
2022-10-31T18:31:53.532Z,105.40
2022-10-31T18:41:56.969Z,107.03
2022-10-31T18:52:01.688Z,96.27
2022-10-31T19:02:05.254Z,97.83
2022-10-31T19:12:10.152Z,101.80
2022-10-31T19:22:13.527Z,105.47
2022-10-31T19:32:18.455Z,115.10
2022-10-31T19:42:21.972Z,105.63
2022-10-31T19:52:26.908Z,107.40
2022-10-31T20:02:30.366Z,110.87
2022-10-31T20:12:35.865Z,125.77
2022-10-31T20:22:39.282Z,124.43
2022-10-31T20:32:48.978Z,124.30
2022-10-31T20:42:53.315Z,109.77
2022-10-31T20:52:58.116Z,108.50
2022-10-31T21:03:01.955Z,113.97
2022-10-31T21:13:07.596Z,119.60
2022-10-31T21:23:11.386Z,128.83
2022-10-31T21:33:16.271Z,117.13
2022-10-31T21:43:19.621Z,114.70
2022-10-31T21:53:41.725Z,113.53
2022-10-31T22:03:45.435Z,110.30
2022-10-31T22:13:51.428Z,106.43
2022-10-31T22:24:00.490Z,109.93
2022-10-31T22:34:09.142Z,112.87
2022-10-31T22:44:12.464Z,109.03
2022-10-31T22:54:19.929Z,107.10
2022-10-31T23:04:23.422Z,107.43
2022-10-31T23:14:28.077Z,109.30
2022-10-31T23:24:36.682Z,107.80
2022-10-31T23:34:41.398Z,108.27
2022-10-31T23:44:45.088Z,104.80
2022-10-31T23:54:49.791Z,105.43
